Aeroporto :
LOGIN :

Iscrizione | Disclaimer

   EN    FR    IT 

 










Sommario :    VFR   VFR Marginale   IFR   IFR Intensivo   IFR Molto Intensivo
Visibilità : 
Base nubi : 
>= 8 km
>= 3000ft
5 / 8 km
1000 / 3000 ft
1500m / 5 km
500 / 1000 ft
800 / 1500m
200 / 500 ft
< 800m
< 200 ft
Simboli :   Temporali  Nebbia  Neve Forte  Precipitazioni Forti  Vento > 20 kt
SIGMETs :   Varie  Temporali  Ghiacco  Turbolenza  Onda orograficha  Ceneri Vulcaniche






- Altitudine del aeroporto : 1197 ft
- Codice IATA : SPM


ETAD - Spangdahlem Ab

ULTIMO METAR :
  • 190655Z AUTO 06006KT 9999 SCT009 OVC026 16/14 A2995 RMK AO2 CIG 024 RWY04 SLP130 T01550137 $

METARs OBSOLETI :
  • 190642Z AUTO 04007KT 9999 BKN009 OVC022 15/14 A2994 RMK AO2 CIG 009V022 BKN V SCT SLP127 $
  • 190627Z AUTO 04005KT 9999 FEW008 OVC020 16/14 A2994 RMK AO2 CIG 019 RWY04 SLP126 $
  • 190555Z AUTO 02008KT 9999 OVC016 16/14 A2993 RMK AO2 SLP122 T01550139 10162 20144 52012 $
  • 190525Z AUTO 02007KT 9999 FEW008 OVC017 16/14 A2993 RMK AO2 SLP122 $
  • 190455Z AUTO 03007KT 9999 BKN008 OVC016 16/14 A2992 RMK AO2 SLP119 T01560143 $
  • 190440Z AUTO 03005KT 9999 SCT008 OVC015 16/14 A2992 RMK AO2 CIG 007 RWY04 SLP119 $
  • 190355Z AUTO 05004KT 9999 OVC014 15/14 A2991 RMK AO2 CIG 013 RWY04 SLP116 T01490139 $
  • 190319Z AUTO 07004KT 8000 BR BKN013 OVC018 15/14 A2989 RMK AO2 VIS 3200 RWY04 CIG 003 RWY24 SLPNO $
  • 190315Z AUTO 06003KT 1800 R22/0800 BR FEW007 OVC015 15/14 A2989 RMK AO2 VIS 0600V2600 OVC V BKN CIG 001 RWY04 CIG 003 RWY24 SLPNO $
  • 190255Z AUTO 10005KT 0400 R22/0250V0300 FG SCT000 SCT015 OVC021 15/14 A2989 RMK AO2 VIS 0400V6000 CIG 020 RWY04 SLPNO T01500144 55004 $
  • 190246Z AUTO 10005KT 5000 R22/1500 BR FEW000 OVC021 15/15 A2989 RMK AO2 OVC V BKN CIG 020 RWY04 SLPNO $
  • 190225Z AUTO 00000KT 9999 BKN021 15/14 A2989 RMK AO2 BKN V FEW SLPNO $

TAF TAF ETAD
Valido dal 18 a 20 ore il 20 a 02 ore UTC


182000Z 1820/2002 30006KT 9999 SCT035 BKN180 QNH2985INS
TEMPO 1820/1822 8000 -RA VCTS BKN035CB OVC180
BECMG 1900/1901 VRB03KT 5000 BR BKN020 OVC040 QNH2986INS
BECMG 1906/1907 02006KT 9000 -SHRA SCT020 BKN035 QNH2991INS
BECMG 1909/1910 03009KT 9999 NSW BKN035 QNH2997INS TX20/1913Z TN14/1903Z LAST NO AMDS AFT 1820 NEXT 2004



MetMap, La meteo Aeronautica in un colpo d'occhio ! - Copyright ORBIFLY Dicembre 2007 - Disclaimer

ORBIFLY MET'MAP TEAM :

Programmazione e sviluppo : Alexandra Zaïnal
Concezione : Baudouin d'Aumeries
Supporto tecnico e logistico : Manuel Goepfert
Aiuto : Marc-Olivier Méhu
Aiuto per la traduzione : Arnaldo La Scala




FONTI E CREDITI :

   NOAA